EST,Max TemperatureF,Mean TemperatureF,Min TemperatureF,Max Dew PointF,MeanDew PointF,Min DewpointF,Max Humidity, Mean Humidity, Min Humidity, Max Sea Level PressureIn, Mean Sea Level PressureIn, Min Sea Level PressureIn, Max VisibilityMiles, Mean VisibilityMiles, Min VisibilityMiles, Max Wind SpeedMPH, Mean Wind SpeedMPH, Max Gust SpeedMPH,PrecipitationIn, CloudCover, Events, WindDirDegrees
2012-11-1,51,43,35,37,30,23,100,63,33,29.93,29.89,29.86,10.0,10.0,10.0,17,7,23,0.00,5,Rain,277
2012-11-2,53,42,32,34,31,28,100,59,44,30.10,29.96,29.84,10.0,10.0,10.0,10,6,16,0.00,3,,330
2012-11-3,46,37,28,39,34,28,100,87,61,30.18,30.11,30.03,10.0,10.0,7.0,15,4,16,0.00,5,Rain,85
2012-11-4,50,42,33,37,35,32,100,81,54,30.15,30.12,30.08,10.0,10.0,10.0,7,4,,0.00,4,,32
2012-11-5,46,38,30,34,31,28,100,78,57,30.17,30.12,30.07,10.0,9.8,4.0,9,3,,0.00,2,,87
2012-11-6,53,42,30,37,31,28,93,71,44,30.07,29.99,29.91,10.0,10.0,10.0,7,3,,0.00,4,,81
2012-11-7,51,43,35,37,35,30,87,73,50,30.10,29.96,29.88,10.0,10.0,10.0,6,2,,0.00,5,,321
2012-11-8,50,39,28,34,31,27,100,79,50,30.25,30.19,30.10,10.0,9.7,5.0,7,3,,0.00,0,,316
2012-11-9,60,44,28,39,33,27,100,67,36,30.30,30.23,30.18,10.0,10.0,10.0,9,5,,0.00,0,,218
2012-11-10,71,58,46,43,38,34,62,46,31,30.30,30.24,30.19,10.0,10.0,10.0,14,8,18,0.00,0,,225
2012-11-11,69,56,44,45,37,34,66,45,28,30.35,30.24,30.15,10.0,10.0,10.0,21,9,26,0.00,0,,210
2012-11-12,60,45,30,55,43,30,100,85,55,30.44,30.22,30.09,10.0,9.9,5.0,17,10,26,0.00,5,Rain,247
2012-11-13,44,34,24,30,28,25,100,81,49,30.51,30.47,30.44,10.0,10.0,10.0,7,4,,0.00,0,,267
2012-11-14,42,34,26,30,27,23,93,77,57,30.50,30.43,30.35,10.0,10.0,10.0,12,6,,0.00,0,,73
2012-11-15,48,36,23,32,28,21,100,78,50,30.37,30.33,30.30,10.0,10.0,10.0,7,3,,0.00,0,,37
2012-11-16,50,39,28,32,30,27,100,77,47,30.47,30.40,30.35,10.0,10.0,10.0,8,3,,0.00,0,,54
2012-11-17,57,42,28,32,30,27,100,68,36,30.53,30.47,30.43,10.0,9.9,7.0,10,6,16,0.00,0,,85
2012-11-18,60,45,30,30,28,25,87,59,27,30.45,30.41,30.36,10.0,10.0,10.0,8,4,,0.00,0,,100
2012-11-19,59,44,30,39,34,27,93,72,45,30.38,30.30,30.20,10.0,10.0,10.0,5,1,,0.00,0,,123
2012-11-20,60,48,35,41,36,32,100,60,34,30.20,30.14,30.08,10.0,10.0,10.0,5,1,,0.00,5,Rain,257
2012-11-21,62,48,35,39,36,34,93,65,36,30.24,30.20,30.12,10.0,10.0,10.0,8,2,,0.00,2,,78
2012-11-22,64,48,32,41,37,32,100,69,40,30.24,30.18,30.08,10.0,10.0,10.0,12,3,,0.00,0,,228
2012-11-23,53,44,35,46,36,25,93,66,47,30.18,30.08,30.01,10.0,9.7,2.5,20,10,29,0.00,4,Rain,286
2012-11-24,35,28,21,27,21,19,93,69,60,30.24,30.19,30.15,10.0,10.0,10.0,9,5,,0.00,7,,311
2012-11-25,50,36,23,27,23,19,86,59,32,30.14,30.04,29.93,10.0,10.0,10.0,16,7,21,0.00,1,,240
2012-11-26,51,42,32,39,30,23,93,66,41,30.20,30.14,30.06,10.0,9.3,5.0,9,5,,0.00,5,Rain,230
2012-11-27,39,34,30,39,33,30,100,94,81,30.34,30.28,30.19,10.0,7.0,2.5,13,4,17,0.00,8,Rain,39
2012-11-28,42,33,24,32,28,23,100,85,57,30.45,30.40,30.32,10.0,8.6,0.5,10,4,,0.00,1,Fog,265
2012-11-29,51,37,23,32,26,21,100,71,38,30.42,30.35,30.28,10.0,9.5,7.0,10,4,,0.00,0,,218
2012-11-30,55,46,37,39,35,28,87,66,51,30.32,30.26,30.21,10.0,9.9,7.0,18,7,29,0.00,2,,232